Weather at Bojax Ranch Airport [CLOSED]

Public forecast

Using degrees Fahrenheit for public forecast. Weather courtesy of forecast.io.

Closest aviation weather report (METAR) to Bojax Ranch Airport

Closest report is Cannon Air Force Base, 45.2 nm (83.6 km) ENE. Retrieved 2022/07/06 08:58 UTC (52 minutes ago):

KCVS 060858Z AUTO 24006KT 10SM OVC110 23/16 A3003 RMK AO2 SLP104 T02320155 55001

Closest aviation forecast (TAF) to Bojax Ranch Airport

Closest forecast is Cannon Air Force Base, 45.2 nm (83.6 km) ENE. Retrieved 2022/07/06 10:52 UTC (0 seconds ago):

TAF KCVS 061000Z 0610/0716 19006KT 9999 BKN070 OVC100 QNH3001INS BECMG 0612/0613 22010KT 9999 SCT080 BKN100 OVC140 QNH3004INS BECMG 0616/0617 23012G18KT 9999 SCT090 SCT120 QNH2999INS BECMG 0619/0620 22012G18KT 9999 SCT090 BKN120 QNH2991INS TEMPO 0621/0622 9000 -SHRA BKN080 BECMG 0701/0702 17015G25KT 9999 BKN100 QNH2990INS BECMG 0705/0706 19012KT 9999 SCT080 QNH3000INS BECMG 0708/0709 21006KT 9999 SCT080 QNH3002INS TX36/0621Z TN21/0613Z